Time;durP1;ratioP1;P1;durP2;ratioP2;P2;SDS_P1;SDS_P2;PMS_P1;PMS_P2;Temp;Humidity;BMP_temperature;BMP_pressure;BME280_temperature;BME280_humidity;BME280_pressure;Samples;Min_cycle;Max_cycle;Signal;HPM_P1;HPM_P2
2024/01/01 09:22:19;;;;;;;22.00;16.40;;;;;;;3.33;81.78;99198.77;104536;1292;616394;-83
2024/01/01 09:24:48;;;;;;;22.10;16.50;;;;;;;3.35;81.69;99194.09;106923;1271;59105;-81
2024/01/01 09:27:16;;;;;;;25.60;17.40;;;;;;;3.34;81.80;99196.80;107382;1268;60327;-83
2024/01/01 09:29:43;;;;;;;24.20;16.30;;;;;;;3.32;81.78;99183.66;108068;1267;70929;-84
2024/01/01 09:32:15;;;;;;;20.60;15.30;;;;;;;3.41;81.75;99178.38;106307;1271;69033;-84
2024/01/01 09:34:43;;;;;;;23.20;16.30;;;;;;;3.50;81.65;99168.38;105886;1269;241792;-83
2024/01/01 09:37:10;;;;;;;24.60;17.10;;;;;;;3.53;81.46;99165.85;106396;1262;59256;-84
2024/01/01 09:39:38;;;;;;;23.80;17.50;;;;;;;3.54;81.43;99162.66;107215;1253;60374;-85
2024/01/01 09:42:09;;;;;;;24.30;17.30;;;;;;;3.54;81.43;99155.34;107677;1254;70369;-82
2024/01/01 09:44:38;;;;;;;27.30;17.00;;;;;;;3.58;81.47;99146.40;107271;1258;70276;-84
2024/01/01 09:47:06;;;;;;;22.80;16.40;;;;;;;3.70;81.15;99147.57;107723;1253;71313;-83
2024/01/01 09:49:40;;;;;;;21.20;16.40;;;;;;;3.82;80.97;99148.77;108910;1254;59686;-82
2024/01/01 09:52:07;;;;;;;24.90;17.40;;;;;;;3.82;80.77;99147.20;108064;1252;59653;-82
2024/01/01 09:54:35;;;;;;;24.70;17.30;;;;;;;3.79;80.65;99142.17;108022;1252;73605;-83
2024/01/01 09:57:03;;;;;;;24.60;17.00;;;;;;;3.77;80.66;99139.90;108439;1252;68160;-83
2024/01/01 09:59:41;;;;;;;25.20;17.50;;;;;;;3.79;80.53;99138.36;108200;1253;72566;-86
2024/01/01 10:02:09;;;;;;;27.30;17.70;;;;;;;3.90;80.43;99138.16;109507;1252;59573;-84
2024/01/01 10:04:37;;;;;;;25.70;18.50;;;;;;;4.00;80.08;99139.25;108308;1254;59286;-78
2024/01/01 10:07:04;;;;;;;25.30;17.20;;;;;;;3.99;80.03;99134.40;106342;1253;74374;-75
2024/01/01 10:09:32;;;;;;;26.40;18.60;;;;;;;3.96;79.98;99126.30;105962;1253;70260;-77
2024/01/01 10:12:09;;;;;;;27.10;20.00;;;;;;;3.90;80.06;99125.20;105864;1258;71418;-76
2024/01/01 10:14:49;;;;;;;30.60;19.60;;;;;;;3.86;80.30;99125.32;105924;1253;61163;-77
2024/01/01 10:17:18;;;;;;;30.30;20.40;;;;;;;3.92;80.14;99125.61;106062;1254;59663;-77
2024/01/01 10:20:00;;;;;;;29.90;19.60;;;;;;;3.97;80.24;99122.15;105566;1260;70659;-77
2024/01/01 10:22:29;;;;;;;30.50;20.30;;;;;;;3.90;80.24;99110.85;105855;1254;70382;-74
2024/01/01 10:25:10;;;;;;;29.20;20.50;;;;;;;3.83;80.68;99103.61;106007;1254;72738;-75
2024/01/01 10:27:46;;;;;;;29.70;21.40;;;;;;;3.80;80.76;99094.11;105906;1257;59635;-75
2024/01/01 10:30:13;;;;;;;27.00;18.90;;;;;;;3.80;81.12;99093.77;105861;1257;59564;-75
2024/01/01 10:32:40;;;;;;;23.00;17.20;;;;;;;3.91;80.91;99088.19;105998;1254;72962;-75
2024/01/01 10:35:08;;;;;;;27.40;18.00;;;;;;;4.00;80.73;99080.73;105855;1254;70709;-74
2024/01/01 10:37:35;;;;;;;25.20;18.30;;;;;;;4.00;80.87;99086.14;105828;1257;71411;-80
2024/01/01 10:40:05;;;;;;;24.50;17.40;;;;;;;3.98;80.75;99078.30;106398;1256;59657;-78
2024/01/01 10:42:33;;;;;;;24.30;17.90;;;;;;;3.94;80.82;99074.99;106310;1252;60150;-80
2024/01/01 10:45:03;;;;;;;24.60;17.10;;;;;;;3.98;80.88;99068.48;106400;1254;71774;-79
2024/01/01 10:47:31;;;;;;;22.50;16.70;;;;;;;4.05;80.71;99055.90;106124;1254;70680;-78
2024/01/01 10:50:32;;;;;;;23.10;17.50;;;;;;;4.06;80.90;99048.81;106743;1253;71142;-79
2024/01/01 10:53:27;;;;;;;23.10;17.10;;;;;;;4.03;80.74;99038.17;109140;1254;58375;-79
2024/01/01 10:56:36;;;;;;;23.50;17.30;;;;;;;4.00;81.00;99028.16;108598;1254;59533;-79
2024/01/01 10:59:17;;;;;;;25.50;17.40;;;;;;;4.11;80.86;99035.71;107137;1256;73052;-78
2024/01/01 11:01:44;;;;;;;25.30;17.90;;;;;;;4.20;80.63;99033.70;107287;1254;70108;-79
2024/01/01 11:04:15;;;;;;;24.20;17.60;;;;;;;4.21;80.71;99024.46;107058;1254;71045;-81
2024/01/01 11:06:42;;;;;;;23.20;17.10;;;;;;;4.23;80.62;99010.09;105997;1254;60005;-79
2024/01/01 11:09:18;;;;;;;24.40;17.60;;;;;;;4.23;80.59;99003.19;106001;1258;59579;-80
2024/01/01 11:11:52;;;;;;;23.10;17.00;;;;;;;4.29;80.47;99004.36;105803;1254;73154;-80
2024/01/01 11:14:34;;;;;;;23.10;16.40;;;;;;;4.38;79.97;98994.26;105930;1256;70215;-80
2024/01/01 11:17:02;;;;;;;24.30;18.40;;;;;;;4.32;79.82;98991.80;105819;1254;71064;-79
2024/01/01 11:19:43;;;;;;;22.40;17.80;;;;;;;4.29;80.23;98986.73;105912;1254;59727;-79
2024/01/01 11:22:20;;;;;;;25.50;17.70;;;;;;;4.24;80.19;98984.67;105999;1254;61194;-82
2024/01/01 11:24:47;;;;;;;22.40;16.60;;;;;;;4.26;80.15;98988.16;105887;1256;75444;-80
2024/01/01 11:27:31;;;;;;;19.70;14.70;;;;;;;4.36;80.09;98992.48;105913;1256;70515;-81
2024/01/01 11:30:02;;;;;;;19.10;15.50;;;;;;;4.35;79.83;98992.07;106211;1254;72358;-79
2024/01/01 11:32:30;;;;;;;22.00;16.00;;;;;;;4.29;80.07;98982.14;106042;1260;59838;-79
2024/01/01 11:35:13;;;;;;;20.10;15.90;;;;;;;4.23;80.51;98979.50;106291;1254;59689;-79
2024/01/01 11:37:42;;;;;;;19.70;15.60;;;;;;;4.26;80.45;98969.61;106105;1254;73097;-79
2024/01/01 11:40:10;;;;;;;20.40;14.60;;;;;;;4.35;80.25;98968.89;108790;1254;68977;-80
2024/01/01 11:42:37;;;;;;;21.80;15.70;;;;;;;4.33;80.26;98964.53;109051;1254;71483;-79
2024/01/01 11:45:10;;;;;;;22.20;16.10;;;;;;;4.30;79.94;98961.52;106984;1258;59655;-81
2024/01/01 11:47:38;;;;;;;22.90;16.10;;;;;;;4.25;80.37;98945.14;106524;1254;59607;-80
2024/01/01 11:50:06;;;;;;;18.90;14.60;;;;;;;4.26;80.28;98938.75;106188;1258;73236;-80
2024/01/01 11:52:33;;;;;;;22.20;15.70;;;;;;;4.37;80.06;98942.78;106178;1254;69987;-81
2024/01/01 11:54:59;;;;;;;19.60;14.80;;;;;;;4.41;79.81;98936.60;106796;1257;72218;-80
2024/01/01 11:57:26;;;;;;;21.20;15.70;;;;;;;4.37;79.82;98927.89;106561;1258;60405;-80
2024/01/01 11:59:53;;;;;;;25.20;17.90;;;;;;;4.33;79.67;98924.75;106261;1254;59637;-80
2024/01/01 12:02:20;;;;;;;21.00;16.30;;;;;;;4.29;79.70;98921.99;105935;1258;73124;-79
2024/01/01 12:04:50;;;;;;;22.50;15.90;;;;;;;4.33;79.76;98935.80;106095;1255;70214;-80
2024/01/01 12:07:30;;;;;;;21.80;16.70;;;;;;;4.36;79.74;98924.33;106421;1256;71053;-80
2024/01/01 12:10:07;;;;;;;20.80;16.30;;;;;;;4.29;79.63;98918.27;106342;1257;59717;-78
2024/01/01 12:12:38;;;;;;;22.00;16.60;;;;;;;4.23;80.02;98933.06;106066;1254;60436;-80
2024/01/01 12:15:13;;;;;;;21.90;16.10;;;;;;;4.18;80.16;98934.45;106093;1254;72082;-79
2024/01/01 12:17:47;;;;;;;20.20;15.00;;;;;;;4.23;80.02;98934.17;106062;1256;70736;-78
2024/01/01 12:20:24;;;;;;;22.70;16.60;;;;;;;4.25;80.18;98919.60;106048;1254;72943;-81
2024/01/01 12:22:52;;;;;;;19.10;15.00;;;;;;;4.18;80.47;98924.27;105870;1254;59526;-79
2024/01/01 12:25:24;;;;;;;21.50;15.80;;;;;;;4.12;80.51;98921.88;106036;1254;60052;-80
2024/01/01 12:28:01;;;;;;;20.10;15.00;;;;;;;4.06;80.69;98911.23;106029;1256;73326;-80
2024/01/01 12:30:30;;;;;;;20.60;15.30;;;;;;;4.14;80.89;98910.67;106587;1254;70164;-81
2024/01/01 12:32:58;;;;;;;19.70;14.50;;;;;;;4.17;80.48;98905.23;106295;1254;72725;-79
2024/01/01 12:35:25;;;;;;;18.10;14.70;;;;;;;4.15;80.69;98908.63;108944;1253;60143;-80
2024/01/01 12:37:52;;;;;;;21.00;15.80;;;;;;;4.10;81.03;98905.94;108827;1254;59026;-79
2024/01/01 12:40:19;;;;;;;22.60;15.10;;;;;;;4.09;80.79;98910.06;106526;1254;73006;-79
2024/01/01 12:42:46;;;;;;;20.10;15.30;;;;;;;4.18;80.93;98911.02;106613;1254;69515;-80
2024/01/01 12:45:13;;;;;;;20.50;17.00;;;;;;;4.21;80.78;98896.35;106090;1256;72446;-79
2024/01/01 12:47:40;;;;;;;21.20;16.80;;;;;;;4.16;80.79;98889.41;106028;1254;59704;-79
2024/01/01 12:50:07;;;;;;;22.10;16.60;;;;;;;4.14;80.95;98885.70;105838;1260;59586;-80
2024/01/01 12:52:35;;;;;;;19.30;14.90;;;;;;;4.12;81.10;98882.90;106754;1254;73515;-79
2024/01/01 12:55:02;;;;;;;23.90;16.20;;;;;;;4.15;81.00;98888.09;106972;1259;69045;-78
2024/01/01 12:57:29;;;;;;;25.00;17.30;;;;;;;4.19;80.58;98878.96;106487;1254;72755;-80
2024/01/01 12:59:56;;;;;;;23.30;17.60;;;;;;;4.16;80.68;98880.34;106007;1254;60405;-80
2024/01/01 13:02:22;;;;;;;21.20;15.50;;;;;;;4.12;80.87;98877.37;106297;1254;60128;-78
2024/01/01 13:04:50;;;;;;;20.50;15.50;;;;;;;4.08;80.81;98880.74;108135;1254;73398;-79
2024/01/01 13:07:16;;;;;;;18.20;13.00;;;;;;;4.14;81.24;98883.14;108179;1254;68686;-78
2024/01/01 13:09:43;;;;;;;21.30;15.30;;;;;;;4.23;80.76;98885.29;107689;1255;71220;-79
2024/01/01 13:12:10;;;;;;;22.00;15.70;;;;;;;4.21;80.99;98890.67;107138;1254;59706;-79
2024/01/01 13:14:40;;;;;;;20.50;16.20;;;;;;;4.16;80.90;98886.73;106536;1254;59628;-78
2024/01/01 13:17:07;;;;;;;25.70;18.00;;;;;;;4.10;81.23;98892.29;106283;1254;72848;-79
2024/01/01 13:19:34;;;;;;;21.60;15.50;;;;;;;4.06;81.57;98886.88;106050;1255;70400;-78
2024/01/01 13:22:02;;;;;;;22.70;16.40;;;;;;;4.14;81.14;98882.25;106082;1258;71189;-80
2024/01/01 13:24:29;;;;;;;25.10;17.40;;;;;;;4.21;81.18;98878.77;105924;1255;60350;-78
2024/01/01 13:26:57;;;;;;;22.80;16.80;;;;;;;4.18;81.15;98876.09;109027;1253;59509;-78
2024/01/01 13:29:26;;;;;;;24.40;17.20;;;;;;;4.11;81.18;98873.37;108630;1255;73856;-79
2024/01/01 13:31:53;;;;;;;22.90;16.00;;;;;;;4.08;81.48;98875.26;106607;1255;68935;-78
2024/01/01 13:34:22;;;;;;;23.20;16.50;;;;;;;4.07;81.51;98870.10;106142;1257;72674;-78
2024/01/01 13:36:49;;;;;;;20.80;16.70;;;;;;;4.16;81.25;98877.13;105929;1255;60444;-80
2024/01/01 13:39:16;;;;;;;20.60;15.90;;;;;;;4.18;81.41;98872.23;105901;1254;60538;-80
2024/01/01 13:41:43;;;;;;;25.80;17.60;;;;;;;4.12;81.37;98871.23;105983;1258;72727;-77
2024/01/01 13:44:10;;;;;;;22.30;16.90;;;;;;;4.07;81.48;98872.91;106066;1258;69182;-78
2024/01/01 13:46:39;;;;;;;25.50;17.30;;;;;;;4.04;81.62;98875.71;106395;1254;72691;-78
2024/01/01 13:49:06;;;;;;;28.00;18.00;;;;;;;4.10;81.67;98876.17;106557;1257;60541;-77
2024/01/01 13:51:33;;;;;;;25.70;17.80;;;;;;;4.12;81.64;98874.52;106185;1257;60871;-80
2024/01/01 13:54:00;;;;;;;22.40;16.70;;;;;;;4.06;81.92;98872.48;106330;1254;72936;-79
2024/01/01 13:56:27;;;;;;;23.40;17.10;;;;;;;3.99;82.24;98862.10;106457;1255;70494;-79
2024/01/01 13:58:54;;;;;;;26.60;17.00;;;;;;;3.95;82.48;98863.55;106295;1254;72848;-78
2024/01/01 14:01:21;;;;;;;27.20;17.20;;;;;;;4.01;82.54;98856.13;106769;1253;60974;-80
2024/01/01 14:03:48;;;;;;;23.40;17.30;;;;;;;4.05;82.27;98848.41;106240;1254;60512;-79
2024/01/01 14:06:15;;;;;;;30.30;19.50;;;;;;;4.01;82.61;98850.02;106530;1257;73859;-81
2024/01/01 14:08:42;;;;;;;25.10;20.00;;;;;;;3.97;82.76;98839.95;106671;1257;69098;-80
2024/01/01 14:11:09;;;;;;;28.00;19.30;;;;;;;3.93;82.94;98833.25;106091;1256;72613;-80
2024/01/01 14:13:36;;;;;;;25.70;19.80;;;;;;;4.00;83.18;98838.08;106381;1255;60466;-80
2024/01/01 14:16:03;;;;;;;28.50;19.70;;;;;;;4.04;82.55;98839.02;108370;1254;59309;-80
2024/01/01 14:18:30;;;;;;;29.50;19.80;;;;;;;4.02;82.86;98831.92;109228;1254;72482;-80
2024/01/01 14:20:58;;;;;;;24.30;19.00;;;;;;;3.98;82.86;98832.50;108879;1254;68803;-80
2024/01/01 14:23:24;;;;;;;25.00;18.90;;;;;;;3.95;83.11;98833.27;108174;1254;71157;-80
2024/01/01 14:25:52;;;;;;;25.90;17.90;;;;;;;4.02;83.02;98828.38;107048;1254;60352;-81
2024/01/01 14:28:19;;;;;;;23.20;18.40;;;;;;;4.05;82.96;98832.13;106558;1255;60439;-80
2024/01/01 14:30:51;;;;;;;22.00;17.10;;;;;;;4.00;83.10;98827.39;106218;1254;73815;-81
2024/01/01 14:33:19;;;;;;;23.50;17.40;;;;;;;3.95;83.39;98816.26;106507;1254;68852;-82
2024/01/01 14:35:47;;;;;;;25.50;16.70;;;;;;;3.92;83.42;98811.45;106435;1256;72356;-80
2024/01/01 14:38:14;;;;;;;20.60;16.10;;;;;;;4.00;83.27;98813.80;106315;1256;61045;-79
2024/01/01 14:40:42;;;;;;;21.40;17.10;;;;;;;4.03;83.43;98807.05;106000;1254;60361;-81
2024/01/01 14:43:09;;;;;;;24.10;17.60;;;;;;;3.98;83.63;98804.06;106240;1254;73873;-81
2024/01/01 14:45:36;;;;;;;23.30;17.80;;;;;;;3.92;83.75;98804.80;106379;1254;70163;-82
2024/01/01 14:48:03;;;;;;;22.80;16.30;;;;;;;3.93;84.01;98802.80;106153;1253;72597;-80
2024/01/01 14:50:38;;;;;;;22.40;18.10;;;;;;;4.01;83.86;98794.69;106182;1258;60560;-82
2024/01/01 14:53:07;;;;;;;;;;;;;;;3.99;83.88;98793.49;106637;1254;60332;-80
2024/01/01 14:55:36;;;;;;;23.10;18.30;;;;;;;3.94;84.05;98786.71;106394;1254;73864;-80
2024/01/01 14:58:03;;;;;;;22.30;17.40;;;;;;;3.90;84.34;98784.69;107674;1254;70779;-79
2024/01/01 15:00:31;;;;;;;23.10;17.00;;;;;;;3.95;84.37;98790.67;107288;1256;72732;-81
2024/01/01 15:02:58;;;;;;;22.00;17.10;;;;;;;3.99;84.30;98780.64;105989;1254;60448;-81
2024/01/01 15:05:27;;;;;;;23.50;17.60;;;;;;;3.95;84.57;98775.79;106261;1254;60432;-80
2024/01/01 15:07:57;;;;;;;25.20;18.70;;;;;;;3.92;84.51;98774.86;107915;1252;72636;-80
2024/01/01 15:10:28;;;;;;;24.40;17.20;;;;;;;3.93;84.50;98779.35;109278;1254;68874;-81
2024/01/01 15:12:56;;;;;;;23.60;17.40;;;;;;;4.03;84.30;98780.25;107524;1260;70707;-81
2024/01/01 15:15:23;;;;;;;22.30;17.10;;;;;;;4.03;84.08;98772.05;106807;1254;60515;-79
2024/01/01 15:17:51;;;;;;;25.10;18.00;;;;;;;3.99;84.59;98768.91;106299;1260;60362;-82
2024/01/01 15:20:18;;;;;;;30.60;23.70;;;;;;;3.95;84.67;98767.76;106077;1255;73179;-79
2024/01/01 15:22:45;;;;;;;30.00;21.60;;;;;;;3.93;84.70;98770.88;106175;1253;70019;-80
2024/01/01 15:25:12;;;;;;;28.70;22.80;;;;;;;4.01;84.73;98772.45;106320;1255;72497;-80
2024/01/01 15:27:39;;;;;;;29.50;21.00;;;;;;;4.05;84.64;98766.25;106535;1254;60396;-81
2024/01/01 15:30:07;;;;;;;28.60;19.30;;;;;;;4.00;84.71;98762.89;107719;1254;60654;-81
2024/01/01 15:32:35;;;;;;;26.50;18.00;;;;;;;3.95;84.85;98760.90;108046;1254;72586;-80
2024/01/01 15:35:04;;;;;;;23.30;17.50;;;;;;;3.95;85.00;98756.50;107620;1254;68964;-80
2024/01/01 15:37:31;;;;;;;21.60;17.40;;;;;;;4.02;84.85;98747.95;106560;1254;72736;-81
2024/01/01 15:40:00;;;;;;;24.10;18.40;;;;;;;3.97;84.97;98744.40;106064;1256;60631;-79
2024/01/01 15:42:28;;;;;;;25.50;18.30;;;;;;;3.89;85.34;98738.58;107662;1254;61530;-80
2024/01/01 15:44:55;;;;;;;23.60;18.40;;;;;;;3.89;85.60;98739.42;109029;1256;72610;-80
2024/01/01 15:47:22;;;;;;;23.60;18.40;;;;;;;3.96;85.13;98735.45;108435;1257;70449;-82
2024/01/01 15:49:49;;;;;;;25.00;18.50;;;;;;;3.92;85.48;98740.15;106721;1256;71490;-80
2024/01/01 15:52:16;;;;;;;23.20;17.80;;;;;;;3.88;85.48;98739.65;106539;1253;60525;-79
2024/01/01 15:54:44;;;;;;;20.80;16.50;;;;;;;3.85;85.79;98738.55;106520;1254;61558;-80
2024/01/01 15:57:12;;;;;;;21.60;16.30;;;;;;;3.88;85.49;98734.59;106443;1254;72571;-82
2024/01/01 15:59:41;;;;;;;24.70;17.60;;;;;;;3.96;85.69;98735.79;108762;1252;68827;-82
2024/01/01 16:02:08;;;;;;;24.20;17.40;;;;;;;3.94;85.70;98736.51;109508;1256;71408;-81
2024/01/01 16:04:36;;;;;;;25.20;18.10;;;;;;;3.89;85.84;98729.96;107761;1256;60509;-81
2024/01/01 16:07:03;;;;;;;23.70;16.80;;;;;;;3.86;85.95;98731.48;107076;1256;59322;-80
2024/01/01 16:09:30;;;;;;;22.90;16.90;;;;;;;3.92;86.00;98730.85;105906;1261;73829;-79
2024/01/01 16:11:56;;;;;;;23.40;17.50;;;;;;;3.96;86.09;98734.92;105836;1259;68884;-80
2024/01/01 16:14:23;;;;;;;24.60;18.40;;;;;;;3.91;86.07;98733.11;105936;1258;72989;-81
2024/01/01 16:16:50;;;;;;;25.90;19.20;;;;;;;3.85;86.35;98735.60;106101;1254;60539;-79
2024/01/01 16:19:20;;;;;;;23.30;17.60;;;;;;;3.85;86.51;98736.14;106198;1258;60441;-80
2024/01/01 16:22:00;;;;;;;23.50;18.20;;;;;;;3.90;86.62;98737.02;106153;1256;72987;-81
2024/01/01 16:24:26;;;;;;;24.10;17.40;;;;;;;3.86;86.66;98729.35;106208;1255;70005;-79
2024/01/01 16:26:57;;;;;;;25.40;18.30;;;;;;;3.80;86.88;98728.05;106186;1260;72596;-81
2024/01/01 16:29:26;;;;;;;26.20;18.60;;;;;;;3.78;87.06;98721.56;106809;1256;59244;-80
2024/01/01 16:31:56;;;;;;;23.30;17.70;;;;;;;3.85;86.73;98721.20;106705;1257;60347;-78
2024/01/01 16:34:23;;;;;;;26.30;20.70;;;;;;;3.87;87.01;98723.55;106341;1255;72555;-80
2024/01/01 16:36:53;;;;;;;26.50;19.30;;;;;;;3.82;87.20;98719.42;107003;1257;69088;-80
2024/01/01 16:39:21;;;;;;;27.80;20.20;;;;;;;3.80;87.27;98725.64;109301;1253;71330;-79
2024/01/01 16:41:52;;;;;;;22.50;17.40;;;;;;;3.86;87.44;98717.27;109091;1254;59379;-79
2024/01/01 16:44:18;;;;;;;25.10;18.70;;;;;;;3.94;87.27;98717.41;109407;1253;58143;-79
2024/01/01 16:46:46;;;;;;;21.90;17.50;;;;;;;3.89;87.43;98715.28;109071;1254;72518;-79
2024/01/01 16:49:15;;;;;;;26.50;20.50;;;;;;;3.83;87.78;98719.36;109247;1254;68788;-79
2024/01/01 16:51:45;;;;;;;24.30;18.90;;;;;;;3.79;88.50;98717.45;109476;1253;71750;-79
2024/01/01 16:54:12;;;;;;;25.20;19.30;;;;;;;3.85;88.29;98709.02;109505;1252;58818;-80
2024/01/01 16:56:39;;;;;;;25.10;19.40;;;;;;;3.83;88.48;98704.60;109485;1256;58795;-78
2024/01/01 16:59:06;;;;;;;23.90;19.30;;;;;;;3.77;88.56;98704.14;109369;1255;72580;-76
2024/01/01 17:01:33;;;;;;;25.70;19.30;;;;;;;3.74;88.83;98708.29;109110;1254;68951;-78
2024/01/01 17:03:59;;;;;;;25.10;19.30;;;;;;;3.82;88.91;98705.24;109290;1254;71203;-79
2024/01/01 17:06:27;;;;;;;28.40;20.40;;;;;;;3.85;88.81;98694.65;109221;1253;58772;-78
2024/01/01 17:08:54;;;;;;;25.80;20.00;;;;;;;3.78;89.15;98690.75;109254;1254;58923;-78
2024/01/01 17:11:20;;;;;;;25.20;17.70;;;;;;;3.73;89.64;98693.84;109264;1253;72842;-79
2024/01/01 17:13:47;;;;;;;27.60;20.60;;;;;;;3.80;89.64;98683.75;109201;1254;68902;-81
2024/01/01 17:16:14;;;;;;;27.00;21.80;;;;;;;3.77;89.74;98673.48;109479;1253;71166;-79
2024/01/01 17:18:43;;;;;;;26.30;20.20;;;;;;;3.72;90.29;98677.95;109392;1254;59168;-81
2024/01/01 17:21:14;;;;;;;25.60;20.00;;;;;;;3.71;90.44;98677.52;109342;1253;59050;-81
2024/01/01 17:23:49;;;;;;;23.30;19.70;;;;;;;3.78;90.15;98670.11;109273;1254;72609;-80
2024/01/01 17:26:16;;;;;;;25.50;20.90;;;;;;;3.74;90.11;98667.84;109472;1254;68713;-80
2024/01/01 17:28:43;;;;;;;30.40;22.30;;;;;;;3.70;90.58;98664.58;109495;1257;71363;-82
2024/01/01 17:31:09;;;;;;;25.10;19.50;;;;;;;3.67;90.81;98661.46;109500;1254;59979;-81
2024/01/01 17:33:36;;;;;;;24.50;20.50;;;;;;;3.75;90.30;98657.56;109516;1255;59047;-79
2024/01/01 17:36:03;;;;;;;26.00;21.10;;;;;;;3.81;90.38;98663.49;109526;1255;72441;-81
2024/01/01 17:38:30;;;;;;;25.60;20.70;;;;;;;3.75;90.77;98661.41;109541;1254;68821;-80
2024/01/01 17:40:57;;;;;;;28.30;20.70;;;;;;;3.69;90.95;98663.59;109492;1255;71443;-79
2024/01/01 17:43:24;;;;;;;29.00;21.30;;;;;;;3.71;90.88;98657.09;109502;1254;59881;-80
2024/01/01 17:45:51;;;;;;;24.10;20.20;;;;;;;3.78;90.74;98649.80;109419;1254;59046;-81
2024/01/01 17:48:18;;;;;;;26.30;21.20;;;;;;;3.76;90.83;98646.49;109360;1254;72401;-80
2024/01/01 17:50:46;;;;;;;28.80;21.30;;;;;;;3.68;91.20;98656.45;109421;1254;69041;-80
2024/01/01 17:53:14;;;;;;;30.50;22.40;;;;;;;3.67;91.38;98652.37;109540;1255;71177;-80
2024/01/01 17:55:41;;;;;;;30.40;23.30;;;;;;;3.72;91.20;98644.34;109517;1253;59954;-81
2024/01/01 17:58:08;;;;;;;28.40;22.80;;;;;;;3.71;91.24;98645.70;109523;1254;58860;-80
2024/01/01 18:00:34;;;;;;;29.40;20.70;;;;;;;3.65;91.44;98635.45;109511;1254;71523;-81
2024/01/01 18:03:01;;;;;;;31.10;22.20;;;;;;;3.66;91.87;98632.20;109508;1254;70408;-81
2024/01/01 18:05:28;;;;;;;28.40;22.10;;;;;;;3.72;91.63;98629.46;109498;1254;71380;-81
2024/01/01 18:07:55;;;;;;;31.70;24.40;;;;;;;3.70;91.27;98621.80;109386;1254;59168;-82
2024/01/01 18:10:23;;;;;;;30.30;21.50;;;;;;;3.66;91.50;98619.56;109391;1252;59001;-82
2024/01/01 18:12:50;;;;;;;28.20;22.50;;;;;;;3.73;91.28;98613.27;109501;1253;72548;-81
2024/01/01 18:15:18;;;;;;;27.90;22.30;;;;;;;3.74;91.40;98611.82;109567;1253;69144;-80
2024/01/01 18:17:45;;;;;;;30.20;23.00;;;;;;;3.67;91.84;98613.87;109458;1253;70209;-80
2024/01/01 18:20:13;;;;;;;29.70;22.30;;;;;;;3.61;92.16;98607.64;109494;1254;61128;-80
2024/01/01 18:22:39;;;;;;;29.10;21.70;;;;;;;3.67;92.11;98604.38;109540;1254;58962;-79
2024/01/01 18:25:07;;;;;;;30.00;22.60;;;;;;;3.72;91.83;98608.64;109508;1253;72350;-80
2024/01/01 18:27:38;;;;;;;29.30;23.60;;;;;;;3.64;92.22;98597.34;109519;1253;68268;-80
2024/01/01 18:30:06;;;;;;;28.50;22.60;;;;;;;3.57;92.56;98597.02;109534;1254;70370;-81
2024/01/01 18:32:33;;;;;;;32.00;21.60;;;;;;;3.60;92.67;98596.56;109270;1254;59919;-79
2024/01/01 18:35:00;;;;;;;28.40;23.40;;;;;;;3.64;92.68;98591.38;109106;1254;58972;-78
2024/01/01 18:37:27;;;;;;;30.50;23.70;;;;;;;3.59;92.89;98582.60;109284;1254;73081;-78
2024/01/01 18:39:54;;;;;;;29.10;22.60;;;;;;;3.56;93.06;98581.06;109310;1254;69023;-78
2024/01/01 18:42:23;;;;;;;28.30;22.90;;;;;;;3.62;92.84;98580.95;109184;1256;71436;-78
2024/01/01 18:44:56;;;;;;;30.90;23.50;;;;;;;3.66;92.55;98584.60;109244;1255;60246;-77
2024/01/01 18:47:24;;;;;;;32.80;24.20;;;;;;;3.58;93.15;98575.92;109409;1255;58761;-78
2024/01/01 18:49:51;;;;;;;31.20;23.70;;;;;;;3.52;93.52;98580.16;109214;1255;72567;-78
2024/01/01 18:52:20;;;;;;;27.40;22.40;;;;;;;3.57;93.21;98576.15;108558;1254;68761;-80
2024/01/01 18:54:47;;;;;;;29.60;23.30;;;;;;;3.60;93.21;98576.38;109012;1254;71303;-79
2024/01/01 18:57:14;;;;;;;33.60;26.30;;;;;;;3.54;93.44;98575.73;109319;1252;60531;-79
2024/01/01 18:59:41;;;;;;;29.20;22.60;;;;;;;3.48;93.91;98564.98;109076;1252;60418;-78
2024/01/01 19:02:08;;;;;;;28.90;22.10;;;;;;;3.54;93.66;98563.16;109388;1253;72317;-78
2024/01/01 19:04:35;;;;;;;29.80;23.60;;;;;;;3.59;93.56;98560.02;109190;1252;68821;-78
2024/01/01 19:07:03;;;;;;;29.70;23.80;;;;;;;3.55;93.83;98558.48;109278;1254;71567;-79
2024/01/01 19:09:31;;;;;;;27.50;21.10;;;;;;;3.51;94.23;98553.85;109089;1254;61134;-78
2024/01/01 19:11:58;;;;;;;27.00;22.30;;;;;;;3.58;94.14;98561.71;109273;1252;58960;-79
2024/01/01 19:14:25;;;;;;;28.60;22.60;;;;;;;3.62;93.76;98555.74;109217;1254;72342;-77
2024/01/01 19:16:52;;;;;;;30.70;23.90;;;;;;;3.55;94.21;98548.33;108892;1256;69006;-76
2024/01/01 19:19:19;;;;;;;31.80;23.90;;;;;;;3.48;94.66;98555.33;108891;1254;71465;-76
2024/01/01 19:21:46;;;;;;;28.40;23.10;;;;;;;3.52;94.39;98548.14;109201;1254;59722;-77
2024/01/01 19:24:13;;;;;;;29.50;23.10;;;;;;;3.56;94.64;98541.31;108970;1254;59269;-77
2024/01/01 19:26:45;;;;;;;32.80;23.40;;;;;;;3.51;94.72;98541.59;109142;1253;72588;-77
2024/01/01 19:29:13;;;;;;;35.40;25.00;;;;;;;3.48;95.01;98543.48;109433;1255;68892;-81
2024/01/01 19:31:41;;;;;;;28.00;22.40;;;;;;;3.52;94.90;98538.11;109428;1254;72557;-79
2024/01/01 19:34:08;;;;;;;33.10;24.90;;;;;;;3.51;94.88;98548.63;109565;1254;58933;-83
2024/01/01 19:36:35;;;;;;;31.90;23.70;;;;;;;3.43;95.03;98546.73;109444;1256;60096;-83
2024/01/01 19:39:04;;;;;;;32.00;22.90;;;;;;;3.45;95.16;98549.00;109555;1254;72392;-83
2024/01/01 19:41:32;;;;;;;31.20;24.10;;;;;;;3.47;95.27;98559.11;109393;1254;69222;-82
2024/01/01 19:44:00;;;;;;;30.80;23.60;;;;;;;3.42;95.78;98559.81;109501;1254;71759;-80
2024/01/01 19:46:27;;;;;;;29.70;22.70;;;;;;;3.40;95.76;98562.16;109497;1254;59776;-82
2024/01/01 19:48:57;;;;;;;29.20;24.00;;;;;;;3.45;95.85;98555.70;109428;1254;59481;-79
2024/01/01 19:51:25;;;;;;;32.90;24.70;;;;;;;3.44;95.72;98548.89;109465;1253;72651;-79
2024/01/01 19:53:52;;;;;;;32.30;24.00;;;;;;;3.41;96.38;98548.41;109397;1254;70163;-79
2024/01/01 19:56:27;;;;;;;31.20;23.70;;;;;;;3.45;96.09;98552.88;109499;1254;70374;-78
2024/01/01 19:58:54;;;;;;;35.80;27.50;;;;;;;3.50;96.02;98553.25;109399;1255;59065;-83
2024/01/01 20:01:21;;;;;;;39.30;25.80;;;;;;;3.45;96.01;98549.50;109245;1254;60278;-81
2024/01/01 20:03:48;;;;;;;33.80;24.30;;;;;;;3.47;95.87;98556.19;108645;1254;72386;-81
2024/01/01 20:06:15;;;;;;;31.20;24.20;;;;;;;3.50;96.22;98553.45;109466;1254;69178;-82
2024/01/01 20:08:42;;;;;;;32.10;25.30;;;;;;;3.46;96.42;98549.99;109357;1254;70176;-78
2024/01/01 20:11:21;;;;;;;33.20;24.70;;;;;;;3.40;97.01;98553.42;109283;1254;60017;-76
2024/01/01 20:13:49;;;;;;;33.00;24.60;;;;;;;3.41;97.53;98556.20;109610;1254;59082;-82
2024/01/01 20:16:32;;;;;;;35.70;27.10;;;;;;;3.36;97.69;98550.58;109503;1254;73894;-80
2024/01/01 20:18:58;;;;;;;40.80;26.30;;;;;;;3.31;98.57;98552.77;109510;1253;68870;-81
2024/01/01 20:21:26;;;;;;;33.50;24.40;;;;;;;3.34;98.47;98548.98;109206;1253;71150;-78
2024/01/01 20:23:52;;;;;;;37.20;26.40;;;;;;;3.38;98.58;98547.66;108522;1259;60275;-80
2024/01/01 20:26:21;;;;;;;37.20;26.70;;;;;;;3.32;99.39;98543.39;108802;1254;60204;-78
2024/01/01 20:29:12;;;;;;;38.30;26.60;;;;;;;3.29;100.00;98543.09;108882;1255;72387;-80
2024/01/01 20:32:25;;;;;;;34.00;26.60;;;;;;;3.36;100.00;98545.89;109272;1254;70272;-80
2024/01/01 20:34:52;;;;;;;36.00;25.30;;;;;;;3.35;100.00;98539.35;108081;1256;70730;-81
2024/01/01 20:37:20;;;;;;;35.70;26.70;;;;;;;3.30;100.00;98529.96;108263;1254;60732;-81
2024/01/01 20:39:47;;;;;;;33.50;24.80;;;;;;;3.37;100.00;98520.77;108737;1255;59247;-81
2024/01/01 20:42:13;;;;;;;35.10;25.30;;;;;;;3.39;100.00;98504.80;108412;1254;71465;-80
2024/01/01 20:44:41;;;;;;;34.70;26.00;;;;;;;3.36;100.00;98484.98;108714;1255;68845;-82
2024/01/01 20:47:08;;;;;;;33.40;26.10;;;;;;;3.41;100.00;98462.57;108508;1254;71494;-81